sensor_id;sensor_type;location;lat;lon;timestamp;pressure;altitude;pressure_sealevel;temperature;humidity
49178;BME280;35016;55.674;37.468;2023-02-22T00:01:10;97692.50;;;-13.91;66.34
49178;BME280;35016;55.674;37.468;2023-02-22T00:03:51;97722.28;;;-13.93;66.77
49178;BME280;35016;55.674;37.468;2023-02-22T00:06:21;97705.97;;;-13.95;67.38
49178;BME280;35016;55.674;37.468;2023-02-22T00:08:56;97713.28;;;-13.99;66.39
49178;BME280;35016;55.674;37.468;2023-02-22T00:11:35;97721.75;;;-13.97;66.56
49178;BME280;35016;55.674;37.468;2023-02-22T00:14:27;97719.16;;;-13.97;66.81
49178;BME280;35016;55.674;37.468;2023-02-22T00:16:56;97729.41;;;-13.95;66.95
49178;BME280;35016;55.674;37.468;2023-02-22T00:19:29;97736.41;;;-13.96;67.13
49178;BME280;35016;55.674;37.468;2023-02-22T00:21:59;97729.41;;;-13.95;67.72
49178;BME280;35016;55.674;37.468;2023-02-22T00:24:31;97731.22;;;-13.96;67.39
49178;BME280;35016;55.674;37.468;2023-02-22T00:26:58;97753.00;;;-13.97;67.34
49178;BME280;35016;55.674;37.468;2023-02-22T00:29:50;97740.94;;;-13.98;67.00
49178;BME280;35016;55.674;37.468;2023-02-22T00:32:20;97750.69;;;-14.00;67.29
49178;BME280;35016;55.674;37.468;2023-02-22T00:34:50;97751.97;;;-14.04;67.69
49178;BME280;35016;55.674;37.468;2023-02-22T00:37:19;97740.88;;;-14.06;66.84
49178;BME280;35016;55.674;37.468;2023-02-22T00:39:47;97745.56;;;-14.10;66.66
49178;BME280;35016;55.674;37.468;2023-02-22T00:42:15;97757.09;;;-14.12;66.71
49178;BME280;35016;55.674;37.468;2023-02-22T00:44:45;97746.16;;;-14.16;67.27
49178;BME280;35016;55.674;37.468;2023-02-22T00:47:12;97762.06;;;-14.19;67.40
49178;BME280;35016;55.674;37.468;2023-02-22T00:49:40;97777.31;;;-14.24;66.10
49178;BME280;35016;55.674;37.468;2023-02-22T00:52:16;97764.72;;;-14.28;66.97
49178;BME280;35016;55.674;37.468;2023-02-22T00:54:46;97759.00;;;-14.32;66.52
49178;BME280;35016;55.674;37.468;2023-02-22T00:57:15;97774.91;;;-14.35;66.35
49178;BME280;35016;55.674;37.468;2023-02-22T00:59:46;97762.19;;;-14.38;66.89
49178;BME280;35016;55.674;37.468;2023-02-22T01:02:17;97759.06;;;-14.42;66.30
49178;BME280;35016;55.674;37.468;2023-02-22T01:04:52;97765.53;;;-14.46;66.53
49178;BME280;35016;55.674;37.468;2023-02-22T01:07:22;97782.25;;;-14.48;67.37
49178;BME280;35016;55.674;37.468;2023-02-22T01:09:51;97778.16;;;-14.51;66.78
49178;BME280;35016;55.674;37.468;2023-02-22T01:12:24;97765.31;;;-14.52;66.34
49178;BME280;35016;55.674;37.468;2023-02-22T01:14:55;97771.47;;;-14.53;66.95
49178;BME280;35016;55.674;37.468;2023-02-22T01:17:24;97785.59;;;-14.56;66.61
49178;BME280;35016;55.674;37.468;2023-02-22T01:19:51;97775.19;;;-14.56;67.17
49178;BME280;35016;55.674;37.468;2023-02-22T01:22:23;97785.06;;;-14.59;67.14
49178;BME280;35016;55.674;37.468;2023-02-22T01:24:57;97773.16;;;-14.62;67.08
49178;BME280;35016;55.674;37.468;2023-02-22T01:27:24;97776.19;;;-14.66;67.14
49178;BME280;35016;55.674;37.468;2023-02-22T01:29:54;97801.41;;;-14.67;67.41
49178;BME280;35016;55.674;37.468;2023-02-22T01:32:24;97799.09;;;-14.70;67.31
49178;BME280;35016;55.674;37.468;2023-02-22T01:35:15;97794.16;;;-14.73;67.05
49178;BME280;35016;55.674;37.468;2023-02-22T01:38:01;97802.94;;;-14.74;67.66
49178;BME280;35016;55.674;37.468;2023-02-22T01:40:47;97824.00;;;-14.77;67.56
49178;BME280;35016;55.674;37.468;2023-02-22T01:43:26;97809.34;;;-14.78;67.75
49178;BME280;35016;55.674;37.468;2023-02-22T01:46:27;97814.69;;;-14.80;67.69
49178;BME280;35016;55.674;37.468;2023-02-22T01:49:03;97813.59;;;-14.77;67.17
49178;BME280;35016;55.674;37.468;2023-02-22T01:54:42;97834.16;;;-14.74;67.88
49178;BME280;35016;55.674;37.468;2023-02-22T01:57:29;97829.75;;;-14.74;67.82
49178;BME280;35016;55.674;37.468;2023-02-22T02:00:00;97823.75;;;-14.74;67.85
49178;BME280;35016;55.674;37.468;2023-02-22T02:02:48;97838.50;;;-14.75;67.34
49178;BME280;35016;55.674;37.468;2023-02-22T02:05:21;97833.28;;;-14.75;67.60
49178;BME280;35016;55.674;37.468;2023-02-22T02:10:56;97845.91;;;-14.70;67.56
49178;BME280;35016;55.674;37.468;2023-02-22T02:13:27;97832.75;;;-14.68;68.18
49178;BME280;35016;55.674;37.468;2023-02-22T02:16:16;97850.53;;;-14.64;67.80
49178;BME280;35016;55.674;37.468;2023-02-22T02:18:58;97851.72;;;-14.58;68.11
49178;BME280;35016;55.674;37.468;2023-02-22T02:35:24;97875.66;;;-14.45;66.96
49178;BME280;35016;55.674;37.468;2023-02-22T02:41:02;97866.09;;;-14.45;68.04
49178;BME280;35016;55.674;37.468;2023-02-22T02:44:03;97883.34;;;-14.44;67.73
49178;BME280;35016;55.674;37.468;2023-02-22T02:52:09;97884.78;;;-14.41;68.03
49178;BME280;35016;55.674;37.468;2023-02-22T02:54:41;97882.50;;;-14.44;67.15
49178;BME280;35016;55.674;37.468;2023-02-22T02:57:15;97893.88;;;-14.45;67.34
49178;BME280;35016;55.674;37.468;2023-02-22T02:59:42;97889.50;;;-14.45;67.21
49178;BME280;35016;55.674;37.468;2023-02-22T03:13:53;97912.50;;;-14.50;67.76
49178;BME280;35016;55.674;37.468;2023-02-22T03:19:11;97916.78;;;-14.58;67.46
49178;BME280;35016;55.674;37.468;2023-02-22T03:24:38;97911.19;;;-14.63;67.74
49178;BME280;35016;55.674;37.468;2023-02-22T03:27:11;97920.63;;;-14.62;67.91
49178;BME280;35016;55.674;37.468;2023-02-22T03:29:57;97920.09;;;-14.66;68.44
49178;BME280;35016;55.674;37.468;2023-02-22T03:32:39;97929.81;;;-14.68;68.15
49178;BME280;35016;55.674;37.468;2023-02-22T03:35:21;97926.66;;;-14.72;68.20
49178;BME280;35016;55.674;37.468;2023-02-22T03:37:57;97931.06;;;-14.72;68.21
49178;BME280;35016;55.674;37.468;2023-02-22T03:40:36;97932.84;;;-14.73;67.98
49178;BME280;35016;55.674;37.468;2023-02-22T03:43:47;97936.94;;;-14.70;68.60
49178;BME280;35016;55.674;37.468;2023-02-22T03:46:25;97945.41;;;-14.68;68.37
49178;BME280;35016;55.674;37.468;2023-02-22T03:51:35;97964.56;;;-14.59;68.18
49178;BME280;35016;55.674;37.468;2023-02-22T03:54:05;97964.28;;;-14.56;68.54
49178;BME280;35016;55.674;37.468;2023-02-22T03:56:53;97960.84;;;-14.57;68.48
49178;BME280;35016;55.674;37.468;2023-02-22T03:59:33;97967.31;;;-14.61;68.56
49178;BME280;35016;55.674;37.468;2023-02-22T04:02:04;97980.72;;;-14.65;67.69
49178;BME280;35016;55.674;37.468;2023-02-22T04:04:40;97970.59;;;-14.68;67.87
49178;BME280;35016;55.674;37.468;2023-02-22T04:07:28;97977.03;;;-14.73;68.31
49178;BME280;35016;55.674;37.468;2023-02-22T04:09:58;97977.28;;;-14.76;67.83
49178;BME280;35016;55.674;37.468;2023-02-22T04:12:47;97978.13;;;-14.75;67.92
49178;BME280;35016;55.674;37.468;2023-02-22T04:15:23;97986.50;;;-14.72;68.21
49178;BME280;35016;55.674;37.468;2023-02-22T04:18:06;97990.31;;;-14.66;68.00
49178;BME280;35016;55.674;37.468;2023-02-22T04:20:36;97992.63;;;-14.63;67.83
49178;BME280;35016;55.674;37.468;2023-02-22T04:23:21;97997.69;;;-14.61;67.98
49178;BME280;35016;55.674;37.468;2023-02-22T04:25:51;97987.28;;;-14.61;68.75
49178;BME280;35016;55.674;37.468;2023-02-22T04:28:22;98000.16;;;-14.60;68.64
49178;BME280;35016;55.674;37.468;2023-02-22T04:31:01;98003.56;;;-14.59;68.06
49178;BME280;35016;55.674;37.468;2023-02-22T04:33:28;98004.41;;;-14.59;68.79
49178;BME280;35016;55.674;37.468;2023-02-22T04:36:34;98019.19;;;-14.59;67.93
49178;BME280;35016;55.674;37.468;2023-02-22T04:39:06;98014.13;;;-14.61;68.13
49178;BME280;35016;55.674;37.468;2023-02-22T04:41:38;98012.22;;;-14.59;68.86
49178;BME280;35016;55.674;37.468;2023-02-22T04:44:23;98017.94;;;-14.55;68.94
49178;BME280;35016;55.674;37.468;2023-02-22T04:46:52;98027.41;;;-14.54;68.08
49178;BME280;35016;55.674;37.468;2023-02-22T04:49:53;98033.41;;;-14.54;68.07
49178;BME280;35016;55.674;37.468;2023-02-22T04:52:34;98026.44;;;-14.53;68.22
49178;BME280;35016;55.674;37.468;2023-02-22T04:55:23;98017.81;;;-14.54;68.17
49178;BME280;35016;55.674;37.468;2023-02-22T05:05:47;98024.38;;;-14.59;68.06
49178;BME280;35016;55.674;37.468;2023-02-22T05:08:28;98027.69;;;-14.57;68.00
49178;BME280;35016;55.674;37.468;2023-02-22T05:11:12;98031.91;;;-14.56;68.28
49178;BME280;35016;55.674;37.468;2023-02-22T05:13:48;98040.81;;;-14.59;68.62
49178;BME280;35016;55.674;37.468;2023-02-22T05:16:40;98041.91;;;-14.61;67.91
49178;BME280;35016;55.674;37.468;2023-02-22T05:19:12;98029.59;;;-14.59;67.85
49178;BME280;35016;55.674;37.468;2023-02-22T05:21:42;98034.13;;;-14.61;68.08
49178;BME280;35016;55.674;37.468;2023-02-22T05:24:12;98048.91;;;-14.62;67.49
49178;BME280;35016;55.674;37.468;2023-02-22T05:27:12;98058.22;;;-14.59;67.12
49178;BME280;35016;55.674;37.468;2023-02-22T05:33:11;98069.72;;;-14.52;67.50
49178;BME280;35016;55.674;37.468;2023-02-22T05:36:41;98063.13;;;-14.47;66.68
49178;BME280;35016;55.674;37.468;2023-02-22T05:39:41;98081.59;;;-14.40;67.08
49178;BME280;35016;55.674;37.468;2023-02-22T05:42:51;98065.84;;;-14.38;67.43
49178;BME280;35016;55.674;37.468;2023-02-22T05:45:33;98072.00;;;-14.40;66.59
49178;BME280;35016;55.674;37.468;2023-02-22T05:48:04;98078.72;;;-14.37;66.08
49178;BME280;35016;55.674;37.468;2023-02-22T05:50:35;98083.09;;;-14.37;66.34
49178;BME280;35016;55.674;37.468;2023-02-22T05:53:04;98084.88;;;-14.38;66.71
49178;BME280;35016;55.674;37.468;2023-02-22T05:55:35;98080.66;;;-14.39;65.79
49178;BME280;35016;55.674;37.468;2023-02-22T05:58:06;98079.00;;;-14.40;66.14
49178;BME280;35016;55.674;37.468;2023-02-22T06:00:39;98091.72;;;-14.37;65.99
49178;BME280;35016;55.674;37.468;2023-02-22T06:03:13;98094.75;;;-14.32;66.66
49178;BME280;35016;55.674;37.468;2023-02-22T06:06:05;98087.72;;;-14.22;66.49
49178;BME280;35016;55.674;37.468;2023-02-22T06:08:39;98097.19;;;-14.11;66.59
49178;BME280;35016;55.674;37.468;2023-02-22T06:11:06;98100.06;;;-14.04;67.60
49178;BME280;35016;55.674;37.468;2023-02-22T06:13:38;98098.53;;;-13.97;67.21
49178;BME280;35016;55.674;37.468;2023-02-22T06:16:08;98110.72;;;-13.98;66.62
49178;BME280;35016;55.674;37.468;2023-02-22T06:18:37;98108.28;;;-13.99;66.49
49178;BME280;35016;55.674;37.468;2023-02-22T06:21:06;98109.09;;;-13.99;67.25
49178;BME280;35016;55.674;37.468;2023-02-22T06:23:39;98111.41;;;-13.96;66.52
49178;BME280;35016;55.674;37.468;2023-02-22T06:26:11;98107.97;;;-13.96;65.81
49178;BME280;35016;55.674;37.468;2023-02-22T06:28:43;98112.38;;;-13.87;67.26
49178;BME280;35016;55.674;37.468;2023-02-22T06:31:10;98110.41;;;-13.75;66.57
49178;BME280;35016;55.674;37.468;2023-02-22T06:36:40;98124.94;;;-13.73;66.45
49178;BME280;35016;55.674;37.468;2023-02-22T06:39:10;98133.72;;;-13.74;65.63
49178;BME280;35016;55.674;37.468;2023-02-22T06:41:41;98121.81;;;-13.77;66.35
49178;BME280;35016;55.674;37.468;2023-02-22T06:44:16;98119.59;;;-13.71;65.81
49178;BME280;35016;55.674;37.468;2023-02-22T06:46:48;98128.47;;;-13.64;67.06
49178;BME280;35016;55.674;37.468;2023-02-22T06:49:18;98130.13;;;-13.54;66.50
49178;BME280;35016;55.674;37.468;2023-02-22T06:51:48;98119.78;;;-13.46;65.88
49178;BME280;35016;55.674;37.468;2023-02-22T06:54:18;98122.94;;;-13.42;66.30
49178;BME280;35016;55.674;37.468;2023-02-22T06:56:50;98137.03;;;-13.35;65.45
49178;BME280;35016;55.674;37.468;2023-02-22T06:59:17;98136.34;;;-13.27;65.39
49178;BME280;35016;55.674;37.468;2023-02-22T07:01:47;98138.38;;;-13.21;66.26
49178;BME280;35016;55.674;37.468;2023-02-22T07:04:17;98142.63;;;-13.20;65.95
49178;BME280;35016;55.674;37.468;2023-02-22T07:06:45;98143.59;;;-13.21;66.63
49178;BME280;35016;55.674;37.468;2023-02-22T07:09:13;98149.97;;;-13.16;65.04
49178;BME280;35016;55.674;37.468;2023-02-22T07:11:44;98144.84;;;-13.07;65.88
49178;BME280;35016;55.674;37.468;2023-02-22T07:14:12;98143.66;;;-13.13;64.41
49178;BME280;35016;55.674;37.468;2023-02-22T07:16:43;98149.16;;;-13.16;64.51
49178;BME280;35016;55.674;37.468;2023-02-22T07:19:13;98154.91;;;-13.13;65.26
49178;BME280;35016;55.674;37.468;2023-02-22T07:21:43;98157.22;;;-13.09;64.83
49178;BME280;35016;55.674;37.468;2023-02-22T07:24:18;98154.47;;;-13.08;65.58
49178;BME280;35016;55.674;37.468;2023-02-22T07:27:03;98156.22;;;-12.99;65.37
49178;BME280;35016;55.674;37.468;2023-02-22T07:29:41;98151.63;;;-12.87;66.58
49178;BME280;35016;55.674;37.468;2023-02-22T07:32:11;98157.47;;;-12.75;66.76
49178;BME280;35016;55.674;37.468;2023-02-22T07:34:40;98165.13;;;-12.64;66.10
49178;BME280;35016;55.674;37.468;2023-02-22T07:37:12;98168.78;;;-12.57;66.10
49178;BME280;35016;55.674;37.468;2023-02-22T07:39:45;98174.06;;;-12.49;66.14
49178;BME280;35016;55.674;37.468;2023-02-22T07:42:17;98180.22;;;-12.40;64.87
49178;BME280;35016;55.674;37.468;2023-02-22T07:44:51;98187.09;;;-12.39;65.10
49178;BME280;35016;55.674;37.468;2023-02-22T07:47:21;98186.31;;;-12.49;64.70
49178;BME280;35016;55.674;37.468;2023-02-22T07:49:59;98191.81;;;-12.53;65.85
49178;BME280;35016;55.674;37.468;2023-02-22T07:52:30;98200.03;;;-12.47;64.23
49178;BME280;35016;55.674;37.468;2023-02-22T07:55:04;98205.25;;;-12.47;65.04
49178;BME280;35016;55.674;37.468;2023-02-22T07:57:36;98192.72;;;-12.44;64.41
49178;BME280;35016;55.674;37.468;2023-02-22T08:00:09;98190.06;;;-12.34;65.51
49178;BME280;35016;55.674;37.468;2023-02-22T08:02:41;98188.34;;;-12.26;64.59
49178;BME280;35016;55.674;37.468;2023-02-22T08:05:12;98196.50;;;-12.11;64.34
49178;BME280;35016;55.674;37.468;2023-02-22T08:07:44;98194.78;;;-12.02;63.36
49178;BME280;35016;55.674;37.468;2023-02-22T08:10:15;98197.16;;;-11.91;64.72
49178;BME280;35016;55.674;37.468;2023-02-22T08:12:44;98203.38;;;-11.92;63.73
49178;BME280;35016;55.674;37.468;2023-02-22T08:15:26;98202.53;;;-11.93;64.08
49178;BME280;35016;55.674;37.468;2023-02-22T08:17:55;98200.09;;;-11.94;64.26
49178;BME280;35016;55.674;37.468;2023-02-22T08:20:26;98201.41;;;-11.90;63.79
49178;BME280;35016;55.674;37.468;2023-02-22T08:22:56;98200.38;;;-11.79;62.57
49178;BME280;35016;55.674;37.468;2023-02-22T08:25:26;98199.09;;;-11.75;63.32
49178;BME280;35016;55.674;37.468;2023-02-22T08:28:00;98215.28;;;-11.72;62.44
49178;BME280;35016;55.674;37.468;2023-02-22T08:30:31;98209.06;;;-11.79;62.53
49178;BME280;35016;55.674;37.468;2023-02-22T08:33:06;98214.09;;;-11.77;62.46
49178;BME280;35016;55.674;37.468;2023-02-22T08:35:35;98218.88;;;-11.73;63.01
49178;BME280;35016;55.674;37.468;2023-02-22T08:38:05;98234.03;;;-11.76;61.77
49178;BME280;35016;55.674;37.468;2023-02-22T08:40:35;98217.38;;;-11.75;62.01
49178;BME280;35016;55.674;37.468;2023-02-22T08:43:11;98210.56;;;-11.68;62.24
49178;BME280;35016;55.674;37.468;2023-02-22T08:46:31;98218.63;;;-11.62;62.14
49178;BME280;35016;55.674;37.468;2023-02-22T08:49:18;98225.06;;;-11.56;62.49
49178;BME280;35016;55.674;37.468;2023-02-22T08:51:47;98224.97;;;-11.46;62.03
49178;BME280;35016;55.674;37.468;2023-02-22T08:54:17;98225.84;;;-11.38;62.40
49178;BME280;35016;55.674;37.468;2023-02-22T08:56:49;98232.56;;;-11.35;62.93
49178;BME280;35016;55.674;37.468;2023-02-22T09:02:31;98251.47;;;-11.23;62.25
49178;BME280;35016;55.674;37.468;2023-02-22T09:05:03;98249.56;;;-11.13;62.48
49178;BME280;35016;55.674;37.468;2023-02-22T09:07:35;98249.44;;;-11.04;63.38
49178;BME280;35016;55.674;37.468;2023-02-22T09:10:05;98252.00;;;-10.94;63.35
49178;BME280;35016;55.674;37.468;2023-02-22T09:12:35;98242.53;;;-10.87;63.24
49178;BME280;35016;55.674;37.468;2023-02-22T09:15:05;98247.97;;;-10.80;63.43
49178;BME280;35016;55.674;37.468;2023-02-22T09:17:34;98252.41;;;-10.73;62.60
49178;BME280;35016;55.674;37.468;2023-02-22T09:20:09;98268.78;;;-10.71;62.94
49178;BME280;35016;55.674;37.468;2023-02-22T09:22:42;98259.91;;;-10.78;62.50
49178;BME280;35016;55.674;37.468;2023-02-22T09:25:14;98263.28;;;-10.93;62.69
49178;BME280;35016;55.674;37.468;2023-02-22T09:27:46;98253.13;;;-10.97;63.08
49178;BME280;35016;55.674;37.468;2023-02-22T09:32:52;98274.97;;;-10.80;63.10
49178;BME280;35016;55.674;37.468;2023-02-22T09:35:24;98264.50;;;-10.80;62.18
49178;BME280;35016;55.674;37.468;2023-02-22T09:37:58;98272.84;;;-10.76;61.21
49178;BME280;35016;55.674;37.468;2023-02-22T09:40:28;98272.91;;;-10.68;61.72
49178;BME280;35016;55.674;37.468;2023-02-22T09:48:06;98262.34;;;-10.50;60.47
49178;BME280;35016;55.674;37.468;2023-02-22T09:50:50;98279.44;;;-10.38;61.42
49178;BME280;35016;55.674;37.468;2023-02-22T09:56:00;98284.88;;;-10.32;61.35
49178;BME280;35016;55.674;37.468;2023-02-22T09:58:34;98282.72;;;-10.36;61.55
49178;BME280;35016;55.674;37.468;2023-02-22T10:01:09;98281.03;;;-10.45;62.28
49178;BME280;35016;55.674;37.468;2023-02-22T10:06:12;98266.72;;;-10.67;60.90
49178;BME280;35016;55.674;37.468;2023-02-22T10:08:43;98296.63;;;-10.70;62.32
49178;BME280;35016;55.674;37.468;2023-02-22T10:18:15;98285.41;;;-10.54;62.74
49178;BME280;35016;55.674;37.468;2023-02-22T10:21:12;98294.63;;;-10.42;61.84
49178;BME280;35016;55.674;37.468;2023-02-22T10:24:30;98291.56;;;-10.37;60.47
49178;BME280;35016;55.674;37.468;2023-02-22T10:27:18;98286.03;;;-10.26;62.34
49178;BME280;35016;55.674;37.468;2023-02-22T10:30:21;98298.53;;;-10.12;62.46
49178;BME280;35016;55.674;37.468;2023-02-22T10:33:09;98303.66;;;-9.94;62.20
49178;BME280;35016;55.674;37.468;2023-02-22T10:35:46;98291.41;;;-9.77;62.51
49178;BME280;35016;55.674;37.468;2023-02-22T10:38:26;98286.19;;;-9.61;62.42
49178;BME280;35016;55.674;37.468;2023-02-22T10:41:25;98300.16;;;-9.44;62.94
49178;BME280;35016;55.674;37.468;2023-02-22T10:44:08;98299.34;;;-9.28;62.51
49178;BME280;35016;55.674;37.468;2023-02-22T10:46:47;98297.56;;;-9.12;62.10
49178;BME280;35016;55.674;37.468;2023-02-22T10:49:41;98287.22;;;-9.13;62.25
49178;BME280;35016;55.674;37.468;2023-02-22T10:52:26;98301.78;;;-9.27;62.84
49178;BME280;35016;55.674;37.468;2023-02-22T10:55:01;98304.59;;;-9.45;62.93
49178;BME280;35016;55.674;37.468;2023-02-22T10:57:46;98323.59;;;-9.51;63.98
49178;BME280;35016;55.674;37.468;2023-02-22T11:03:21;98308.81;;;-9.68;63.59
49178;BME280;35016;55.674;37.468;2023-02-22T11:06:35;98335.69;;;-9.74;65.07
49178;BME280;35016;55.674;37.468;2023-02-22T11:09:24;98341.41;;;-9.71;65.24
49178;BME280;35016;55.674;37.468;2023-02-22T11:12:09;98331.59;;;-9.69;64.39
49178;BME280;35016;55.674;37.468;2023-02-22T11:14:44;98336.69;;;-9.59;64.82
49178;BME280;35016;55.674;37.468;2023-02-22T11:17:48;98320.50;;;-9.46;64.68
49178;BME280;35016;55.674;37.468;2023-02-22T11:20:47;98327.06;;;-9.26;64.02
49178;BME280;35016;55.674;37.468;2023-02-22T11:23:26;98338.75;;;-9.20;63.60
49178;BME280;35016;55.674;37.468;2023-02-22T11:26:16;98337.25;;;-9.15;64.45
49178;BME280;35016;55.674;37.468;2023-02-22T11:29:04;98343.50;;;-9.16;64.65
49178;BME280;35016;55.674;37.468;2023-02-22T11:31:51;98331.81;;;-9.29;63.17
49178;BME280;35016;55.674;37.468;2023-02-22T11:34:26;98354.78;;;-9.31;63.18
49178;BME280;35016;55.674;37.468;2023-02-22T11:36:55;98349.53;;;-9.31;63.67
49178;BME280;35016;55.674;37.468;2023-02-22T11:39:27;98343.63;;;-9.33;64.36
49178;BME280;35016;55.674;37.468;2023-02-22T11:41:55;98342.31;;;-9.29;64.12
49178;BME280;35016;55.674;37.468;2023-02-22T11:44:25;98346.44;;;-9.19;64.19
49178;BME280;35016;55.674;37.468;2023-02-22T11:46:55;98340.69;;;-9.06;63.89
49178;BME280;35016;55.674;37.468;2023-02-22T11:49:33;98356.97;;;-8.94;63.48
49178;BME280;35016;55.674;37.468;2023-02-22T12:00:08;98352.19;;;-8.99;63.96
49178;BME280;35016;55.674;37.468;2023-02-22T12:18:23;98385.69;;;-8.85;61.91
49178;BME280;35016;55.674;37.468;2023-02-22T12:20:56;98385.53;;;-8.83;61.23
49178;BME280;35016;55.674;37.468;2023-02-22T12:34:06;98398.28;;;-9.04;58.41
49178;BME280;35016;55.674;37.468;2023-02-22T12:36:46;98398.31;;;-8.88;60.11
49178;BME280;35016;55.674;37.468;2023-02-22T12:41:53;98416.03;;;-8.74;61.53
49178;BME280;35016;55.674;37.468;2023-02-22T12:44:33;98438.38;;;-8.70;60.66
49178;BME280;35016;55.674;37.468;2023-02-22T12:47:02;98414.09;;;-8.64;61.25
49178;BME280;35016;55.674;37.468;2023-02-22T12:49:41;98414.91;;;-8.47;61.54
49178;BME280;35016;55.674;37.468;2023-02-22T12:52:13;98426.72;;;-8.35;61.75
49178;BME280;35016;55.674;37.468;2023-02-22T12:54:50;98430.44;;;-8.21;58.56
49178;BME280;35016;55.674;37.468;2023-02-22T12:57:24;98432.84;;;-7.87;60.30
49178;BME280;35016;55.674;37.468;2023-02-22T13:02:37;98441.69;;;-7.02;61.44
49178;BME280;35016;55.674;37.468;2023-02-22T13:05:14;98446.63;;;-6.99;61.77
49178;BME280;35016;55.674;37.468;2023-02-22T13:15:37;98448.91;;;-6.96;61.12
49178;BME280;35016;55.674;37.468;2023-02-22T13:23:23;98455.81;;;-6.26;61.01
49178;BME280;35016;55.674;37.468;2023-02-22T13:25:58;98459.47;;;-6.12;62.84
49178;BME280;35016;55.674;37.468;2023-02-22T13:28:35;98489.69;;;-6.15;62.67
49178;BME280;35016;55.674;37.468;2023-02-22T13:34:14;98478.50;;;-6.17;62.24
49178;BME280;35016;55.674;37.468;2023-02-22T13:36:56;98480.81;;;-5.99;62.76
49178;BME280;35016;55.674;37.468;2023-02-22T13:49:51;98501.31;;;-5.57;61.49
49178;BME280;35016;55.674;37.468;2023-02-22T13:52:22;98494.75;;;-5.61;63.57
49178;BME280;35016;55.674;37.468;2023-02-22T13:54:51;98490.56;;;-5.70;63.82
49178;BME280;35016;55.674;37.468;2023-02-22T13:57:23;98483.72;;;-5.79;64.18
49178;BME280;35016;55.674;37.468;2023-02-22T14:02:59;98485.84;;;-5.75;63.54
49178;BME280;35016;55.674;37.468;2023-02-22T14:13:09;98496.66;;;-5.70;61.67
49178;BME280;35016;55.674;37.468;2023-02-22T14:21:12;98501.28;;;-7.01;62.64
49178;BME280;35016;55.674;37.468;2023-02-22T14:23:41;98500.16;;;-7.45;62.45
49178;BME280;35016;55.674;37.468;2023-02-22T14:28:58;98502.78;;;-8.09;62.44
49178;BME280;35016;55.674;37.468;2023-02-22T14:39:26;98508.91;;;-9.08;63.62
49178;BME280;35016;55.674;37.468;2023-02-22T14:44:58;98542.84;;;-9.48;63.30
49178;BME280;35016;55.674;37.468;2023-02-22T14:47:31;98531.44;;;-9.65;64.12
49178;BME280;35016;55.674;37.468;2023-02-22T14:50:06;98542.66;;;-9.81;64.07
49178;BME280;35016;55.674;37.468;2023-02-22T14:52:38;98525.00;;;-9.96;63.31
49178;BME280;35016;55.674;37.468;2023-02-22T14:55:20;98531.19;;;-10.06;63.68
49178;BME280;35016;55.674;37.468;2023-02-22T14:58:04;98543.38;;;-10.14;64.05
49178;BME280;35016;55.674;37.468;2023-02-22T15:00:39;98543.34;;;-10.22;63.78
49178;BME280;35016;55.674;37.468;2023-02-22T15:03:27;98541.81;;;-10.33;63.23
49178;BME280;35016;55.674;37.468;2023-02-22T15:06:11;98538.00;;;-10.39;63.73
49178;BME280;35016;55.674;37.468;2023-02-22T15:08:41;98544.63;;;-10.44;63.78
49178;BME280;35016;55.674;37.468;2023-02-22T15:11:21;98555.72;;;-10.50;63.34
49178;BME280;35016;55.674;37.468;2023-02-22T15:13:50;98549.13;;;-10.54;63.84
49178;BME280;35016;55.674;37.468;2023-02-22T15:16:21;98550.41;;;-10.58;63.61
49178;BME280;35016;55.674;37.468;2023-02-22T15:18:51;98563.81;;;-10.61;63.20
49178;BME280;35016;55.674;37.468;2023-02-22T15:21:22;98554.91;;;-10.69;63.58
49178;BME280;35016;55.674;37.468;2023-02-22T15:23:55;98561.22;;;-10.71;63.30
49178;BME280;35016;55.674;37.468;2023-02-22T15:26:33;98564.31;;;-10.76;63.62
49178;BME280;35016;55.674;37.468;2023-02-22T15:29:09;98564.91;;;-10.82;63.91
49178;BME280;35016;55.674;37.468;2023-02-22T15:31:44;98581.72;;;-10.84;63.28
49178;BME280;35016;55.674;37.468;2023-02-22T15:34:29;98569.22;;;-10.90;63.70
49178;BME280;35016;55.674;37.468;2023-02-22T15:37:20;98572.13;;;-10.93;63.72
49178;BME280;35016;55.674;37.468;2023-02-22T15:40:03;98589.78;;;-10.96;63.67
49178;BME280;35016;55.674;37.468;2023-02-22T15:42:43;98581.53;;;-11.01;63.53
49178;BME280;35016;55.674;37.468;2023-02-22T15:45:16;98580.03;;;-11.03;63.61
49178;BME280;35016;55.674;37.468;2023-02-22T15:47:48;98591.59;;;-11.06;63.38
49178;BME280;35016;55.674;37.468;2023-02-22T15:56:14;98589.56;;;-11.12;63.30
49178;BME280;35016;55.674;37.468;2023-02-22T15:59:28;98582.56;;;-11.11;63.68
49178;BME280;35016;55.674;37.468;2023-02-22T16:05:27;98594.13;;;-11.14;63.73
49178;BME280;35016;55.674;37.468;2023-02-22T16:11:23;98592.09;;;-11.20;63.58
49178;BME280;35016;55.674;37.468;2023-02-22T16:14:23;98591.28;;;-11.20;63.34
49178;BME280;35016;55.674;37.468;2023-02-22T16:19:42;98594.19;;;-11.23;63.89
49178;BME280;35016;55.674;37.468;2023-02-22T16:22:37;98595.16;;;-11.24;63.94
49178;BME280;35016;55.674;37.468;2023-02-22T16:31:00;98604.22;;;-11.29;63.71
49178;BME280;35016;55.674;37.468;2023-02-22T16:33:40;98600.94;;;-11.31;63.74
49178;BME280;35016;55.674;37.468;2023-02-22T16:36:11;98600.13;;;-11.31;63.82
49178;BME280;35016;55.674;37.468;2023-02-22T16:38:42;98601.06;;;-11.32;63.43
49178;BME280;35016;55.674;37.468;2023-02-22T16:41:18;98606.31;;;-11.32;63.56
49178;BME280;35016;55.674;37.468;2023-02-22T16:43:47;98603.97;;;-11.35;63.53
49178;BME280;35016;55.674;37.468;2023-02-22T16:46:25;98601.38;;;-11.35;63.95
49178;BME280;35016;55.674;37.468;2023-02-22T16:48:55;98616.09;;;-11.34;63.91
49178;BME280;35016;55.674;37.468;2023-02-22T16:51:26;98616.25;;;-11.36;63.99
49178;BME280;35016;55.674;37.468;2023-02-22T16:53:54;98615.41;;;-11.36;63.62
49178;BME280;35016;55.674;37.468;2023-02-22T16:56:28;98620.50;;;-11.35;63.77